sensor_id;sensor_type;location;lat;lon;timestamp;P1;durP1;ratioP1;P2;durP2;ratioP2
21120;SDS011;12519;43.318;21.898;2022-09-09T00:04:37;13.0;;;10.0;;
21120;SDS011;12519;43.318;21.898;2022-09-09T00:09:22;13.0;;;10.0;;
21120;SDS011;12519;43.318;21.898;2022-09-09T00:14:34;13.0;;;10.0;;
21120;SDS011;12519;43.318;21.898;2022-09-09T00:19:44;13.0;;;10.0;;
21120;SDS011;12519;43.318;21.898;2022-09-09T00:39:40;10.0;;;10.0;;
21120;SDS011;12519;43.318;21.898;2022-09-09T00:44:36;10.0;;;10.0;;
21120;SDS011;12519;43.318;21.898;2022-09-09T00:49:57;10.0;;;10.0;;
21120;SDS011;12519;43.318;21.898;2022-09-09T00:55:10;10.0;;;9.0;;
21120;SDS011;12519;43.318;21.898;2022-09-09T01:00:23;10.0;;;9.0;;
21120;SDS011;12519;43.318;21.898;2022-09-09T01:05:27;10.0;;;8.0;;
21120;SDS011;12519;43.318;21.898;2022-09-09T01:10:49;10.0;;;8.0;;
21120;SDS011;12519;43.318;21.898;2022-09-09T01:15:34;10.0;;;9.0;;
21120;SDS011;12519;43.318;21.898;2022-09-09T01:20:29;10.0;;;9.0;;
21120;SDS011;12519;43.318;21.898;2022-09-09T01:26:25;11.0;;;10.0;;
21120;SDS011;12519;43.318;21.898;2022-09-09T01:31:20;11.0;;;10.0;;
21120;SDS011;12519;43.318;21.898;2022-09-09T01:36:16;10.0;;;10.0;;
21120;SDS011;12519;43.318;21.898;2022-09-09T01:41:05;10.0;;;10.0;;
21120;SDS011;12519;43.318;21.898;2022-09-09T01:45:45;9.0;;;9.0;;
21120;SDS011;12519;43.318;21.898;2022-09-09T01:50:32;9.0;;;9.0;;
21120;SDS011;12519;43.318;21.898;2022-09-09T01:55:11;10.0;;;10.0;;
21120;SDS011;12519;43.318;21.898;2022-09-09T02:00:08;10.0;;;10.0;;
21120;SDS011;12519;43.318;21.898;2022-09-09T02:05:18;11.0;;;10.0;;
21120;SDS011;12519;43.318;21.898;2022-09-09T02:10:42;11.0;;;10.0;;
21120;SDS011;12519;43.318;21.898;2022-09-09T02:15:56;12.0;;;10.0;;
21120;SDS011;12519;43.318;21.898;2022-09-09T02:20:54;12.0;;;10.0;;
21120;SDS011;12519;43.318;21.898;2022-09-09T02:25:40;12.0;;;10.0;;
21120;SDS011;12519;43.318;21.898;2022-09-09T02:30:23;12.0;;;10.0;;
21120;SDS011;12519;43.318;21.898;2022-09-09T02:35:19;10.0;;;10.0;;
21120;SDS011;12519;43.318;21.898;2022-09-09T02:40:09;10.0;;;10.0;;
21120;SDS011;12519;43.318;21.898;2022-09-09T02:44:51;9.0;;;9.0;;
21120;SDS011;12519;43.318;21.898;2022-09-09T02:49:52;9.0;;;9.0;;
21120;SDS011;12519;43.318;21.898;2022-09-09T02:55:08;10.0;;;9.0;;
21120;SDS011;12519;43.318;21.898;2022-09-09T03:00:10;10.0;;;9.0;;
21120;SDS011;12519;43.318;21.898;2022-09-09T03:04:48;10.0;;;9.0;;
21120;SDS011;12519;43.318;21.898;2022-09-09T03:09:25;10.0;;;9.0;;
21120;SDS011;12519;43.318;21.898;2022-09-09T03:14:02;10.0;;;9.0;;
21120;SDS011;12519;43.318;21.898;2022-09-09T03:18:39;10.0;;;10.0;;
21120;SDS011;12519;43.318;21.898;2022-09-09T03:23:15;10.0;;;10.0;;
21120;SDS011;12519;43.318;21.898;2022-09-09T03:27:55;10.0;;;10.0;;
21120;SDS011;12519;43.318;21.898;2022-09-09T03:32:33;10.0;;;10.0;;
21120;SDS011;12519;43.318;21.898;2022-09-09T03:37:10;12.0;;;10.0;;
21120;SDS011;12519;43.318;21.898;2022-09-09T03:41:47;12.0;;;10.0;;
21120;SDS011;12519;43.318;21.898;2022-09-09T03:46:26;13.0;;;10.0;;
21120;SDS011;12519;43.318;21.898;2022-09-09T03:51:03;13.0;;;10.0;;
21120;SDS011;12519;43.318;21.898;2022-09-09T03:55:44;14.0;;;12.0;;
21120;SDS011;12519;43.318;21.898;2022-09-09T04:00:21;14.0;;;12.0;;
21120;SDS011;12519;43.318;21.898;2022-09-09T04:04:57;14.0;;;13.0;;
21120;SDS011;12519;43.318;21.898;2022-09-09T04:09:34;14.0;;;13.0;;
21120;SDS011;12519;43.318;21.898;2022-09-09T04:14:11;14.0;;;13.0;;
21120;SDS011;12519;43.318;21.898;2022-09-09T04:18:48;16.0;;;14.0;;
21120;SDS011;12519;43.318;21.898;2022-09-09T04:23:28;16.0;;;14.0;;
21120;SDS011;12519;43.318;21.898;2022-09-09T04:28:05;17.0;;;16.0;;
21120;SDS011;12519;43.318;21.898;2022-09-09T04:32:42;17.0;;;16.0;;
21120;SDS011;12519;43.318;21.898;2022-09-09T04:37:19;19.0;;;17.0;;
21120;SDS011;12519;43.318;21.898;2022-09-09T04:41:56;19.0;;;17.0;;
21120;SDS011;12519;43.318;21.898;2022-09-09T04:46:33;21.0;;;18.0;;
21120;SDS011;12519;43.318;21.898;2022-09-09T04:51:14;21.0;;;18.0;;
21120;SDS011;12519;43.318;21.898;2022-09-09T04:56:03;26.0;;;23.0;;
21120;SDS011;12519;43.318;21.898;2022-09-09T05:00:48;26.0;;;23.0;;
21120;SDS011;12519;43.318;21.898;2022-09-09T05:05:25;30.0;;;28.0;;
21120;SDS011;12519;43.318;21.898;2022-09-09T05:10:03;30.0;;;28.0;;
21120;SDS011;12519;43.318;21.898;2022-09-09T05:14:42;30.0;;;28.0;;
21120;SDS011;12519;43.318;21.898;2022-09-09T05:19:20;22.0;;;20.0;;
21120;SDS011;12519;43.318;21.898;2022-09-09T05:23:57;22.0;;;20.0;;
21120;SDS011;12519;43.318;21.898;2022-09-09T05:28:35;13.0;;;13.0;;
21120;SDS011;12519;43.318;21.898;2022-09-09T05:33:12;13.0;;;13.0;;
21120;SDS011;12519;43.318;21.898;2022-09-09T05:37:49;19.0;;;16.0;;
21120;SDS011;12519;43.318;21.898;2022-09-09T05:42:31;19.0;;;16.0;;
21120;SDS011;12519;43.318;21.898;2022-09-09T05:47:07;25.0;;;19.0;;
21120;SDS011;12519;43.318;21.898;2022-09-09T05:51:44;25.0;;;19.0;;
21120;SDS011;12519;43.318;21.898;2022-09-09T05:56:26;22.0;;;18.0;;
21120;SDS011;12519;43.318;21.898;2022-09-09T06:01:10;22.0;;;18.0;;
21120;SDS011;12519;43.318;21.898;2022-09-09T06:06:00;18.0;;;16.0;;
21120;SDS011;12519;43.318;21.898;2022-09-09T06:10:40;18.0;;;16.0;;
21120;SDS011;12519;43.318;21.898;2022-09-09T06:15:17;18.0;;;15.0;;
21120;SDS011;12519;43.318;21.898;2022-09-09T06:19:53;18.0;;;15.0;;
21120;SDS011;12519;43.318;21.898;2022-09-09T06:24:30;18.0;;;15.0;;
21120;SDS011;12519;43.318;21.898;2022-09-09T06:29:09;17.0;;;14.0;;
21120;SDS011;12519;43.318;21.898;2022-09-09T06:33:49;17.0;;;14.0;;
21120;SDS011;12519;43.318;21.898;2022-09-09T06:38:30;16.0;;;13.0;;
21120;SDS011;12519;43.318;21.898;2022-09-09T06:43:07;16.0;;;13.0;;
21120;SDS011;12519;43.318;21.898;2022-09-09T06:47:43;15.0;;;12.0;;
21120;SDS011;12519;43.318;21.898;2022-09-09T06:52:20;15.0;;;12.0;;
21120;SDS011;12519;43.318;21.898;2022-09-09T06:56:56;14.0;;;13.0;;
21120;SDS011;12519;43.318;21.898;2022-09-09T07:01:38;14.0;;;13.0;;
21120;SDS011;12519;43.318;21.898;2022-09-09T07:06:23;14.0;;;14.0;;
21120;SDS011;12519;43.318;21.898;2022-09-09T07:11:09;14.0;;;14.0;;
21120;SDS011;12519;43.318;21.898;2022-09-09T07:15:46;14.0;;;14.0;;
21120;SDS011;12519;43.318;21.898;2022-09-09T07:20:24;14.0;;;14.0;;
21120;SDS011;12519;43.318;21.898;2022-09-09T07:25:01;14.0;;;14.0;;
21120;SDS011;12519;43.318;21.898;2022-09-09T07:29:41;15.0;;;14.0;;
21120;SDS011;12519;43.318;21.898;2022-09-09T07:34:19;15.0;;;14.0;;
21120;SDS011;12519;43.318;21.898;2022-09-09T07:39:02;16.0;;;14.0;;
21120;SDS011;12519;43.318;21.898;2022-09-09T07:43:52;16.0;;;14.0;;
21120;SDS011;12519;43.318;21.898;2022-09-09T07:48:30;18.0;;;15.0;;
21120;SDS011;12519;43.318;21.898;2022-09-09T07:53:09;18.0;;;15.0;;
21120;SDS011;12519;43.318;21.898;2022-09-09T07:57:46;18.0;;;16.0;;
21120;SDS011;12519;43.318;21.898;2022-09-09T08:02:24;18.0;;;16.0;;
21120;SDS011;12519;43.318;21.898;2022-09-09T08:07:03;19.0;;;17.0;;
21120;SDS011;12519;43.318;21.898;2022-09-09T08:11:43;19.0;;;17.0;;
21120;SDS011;12519;43.318;21.898;2022-09-09T08:16:27;17.0;;;16.0;;
21120;SDS011;12519;43.318;21.898;2022-09-09T08:21:16;17.0;;;16.0;;
21120;SDS011;12519;43.318;21.898;2022-09-09T08:26:07;15.0;;;14.0;;
21120;SDS011;12519;43.318;21.898;2022-09-09T08:30:46;15.0;;;14.0;;
21120;SDS011;12519;43.318;21.898;2022-09-09T08:35:22;15.0;;;14.0;;
21120;SDS011;12519;43.318;21.898;2022-09-09T08:39:58;15.0;;;13.0;;
21120;SDS011;12519;43.318;21.898;2022-09-09T08:45:14;15.0;;;13.0;;
21120;SDS011;12519;43.318;21.898;2022-09-09T08:50:23;15.0;;;12.0;;
21120;SDS011;12519;43.318;21.898;2022-09-09T08:55:34;15.0;;;12.0;;
21120;SDS011;12519;43.318;21.898;2022-09-09T09:00:22;15.0;;;13.0;;
21120;SDS011;12519;43.318;21.898;2022-09-09T09:05:36;15.0;;;14.0;;
21120;SDS011;12519;43.318;21.898;2022-09-09T09:10:48;15.0;;;14.0;;
21120;SDS011;12519;43.318;21.898;2022-09-09T09:15:41;18.0;;;15.0;;
21120;SDS011;12519;43.318;21.898;2022-09-09T09:20:52;18.0;;;15.0;;
21120;SDS011;12519;43.318;21.898;2022-09-09T09:25:45;21.0;;;16.0;;
21120;SDS011;12519;43.318;21.898;2022-09-09T09:30:35;21.0;;;16.0;;
21120;SDS011;12519;43.318;21.898;2022-09-09T09:35:19;21.0;;;16.0;;
21120;SDS011;12519;43.318;21.898;2022-09-09T09:40:06;19.0;;;16.0;;
21120;SDS011;12519;43.318;21.898;2022-09-09T09:44:46;19.0;;;16.0;;
21120;SDS011;12519;43.318;21.898;2022-09-09T09:49:23;17.0;;;15.0;;
21120;SDS011;12519;43.318;21.898;2022-09-09T09:54:30;17.0;;;15.0;;
21120;SDS011;12519;43.318;21.898;2022-09-09T09:59:34;16.0;;;14.0;;
21120;SDS011;12519;43.318;21.898;2022-09-09T10:04:22;16.0;;;14.0;;
21120;SDS011;12519;43.318;21.898;2022-09-09T10:09:23;15.0;;;12.0;;
21120;SDS011;12519;43.318;21.898;2022-09-09T10:14:30;15.0;;;12.0;;
21120;SDS011;12519;43.318;21.898;2022-09-09T10:20:32;14.0;;;12.0;;
21120;SDS011;12519;43.318;21.898;2022-09-09T10:26:34;14.0;;;13.0;;
21120;SDS011;12519;43.318;21.898;2022-09-09T10:32:14;14.0;;;13.0;;
21120;SDS011;12519;43.318;21.898;2022-09-09T10:38:11;13.0;;;12.0;;
21120;SDS011;12519;43.318;21.898;2022-09-09T10:43:32;13.0;;;12.0;;
21120;SDS011;12519;43.318;21.898;2022-09-09T10:49:44;12.0;;;12.0;;
21120;SDS011;12519;43.318;21.898;2022-09-09T10:55:17;12.0;;;12.0;;
21120;SDS011;12519;43.318;21.898;2022-09-09T11:00:19;13.0;;;12.0;;
21120;SDS011;12519;43.318;21.898;2022-09-09T11:05:19;13.0;;;12.0;;
21120;SDS011;12519;43.318;21.898;2022-09-09T11:10:29;14.0;;;11.0;;
21120;SDS011;12519;43.318;21.898;2022-09-09T11:15:36;14.0;;;11.0;;
21120;SDS011;12519;43.318;21.898;2022-09-09T11:20:22;12.0;;;10.0;;
21120;SDS011;12519;43.318;21.898;2022-09-09T11:25:17;12.0;;;10.0;;
21120;SDS011;12519;43.318;21.898;2022-09-09T11:30:20;10.0;;;8.0;;
21120;SDS011;12519;43.318;21.898;2022-09-09T11:35:42;10.0;;;8.0;;
21120;SDS011;12519;43.318;21.898;2022-09-09T11:40:42;10.0;;;8.0;;
21120;SDS011;12519;43.318;21.898;2022-09-09T11:45:27;10.0;;;8.0;;
21120;SDS011;12519;43.318;21.898;2022-09-09T11:50:29;9.0;;;8.0;;
21120;SDS011;12519;43.318;21.898;2022-09-09T11:55:29;9.0;;;8.0;;
21120;SDS011;12519;43.318;21.898;2022-09-09T12:00:38;11.0;;;10.0;;
21120;SDS011;12519;43.318;21.898;2022-09-09T12:05:19;11.0;;;10.0;;
21120;SDS011;12519;43.318;21.898;2022-09-09T12:10:22;13.0;;;11.0;;
21120;SDS011;12519;43.318;21.898;2022-09-09T12:15:28;13.0;;;11.0;;
21120;SDS011;12519;43.318;21.898;2022-09-09T12:20:18;12.0;;;10.0;;
21120;SDS011;12519;43.318;21.898;2022-09-09T12:25:28;12.0;;;10.0;;
21120;SDS011;12519;43.318;21.898;2022-09-09T12:30:45;11.0;;;9.0;;
21120;SDS011;12519;43.318;21.898;2022-09-09T12:35:54;11.0;;;9.0;;
21120;SDS011;12519;43.318;21.898;2022-09-09T12:40:35;11.0;;;10.0;;
21120;SDS011;12519;43.318;21.898;2022-09-09T12:45:23;11.0;;;10.0;;
21120;SDS011;12519;43.318;21.898;2022-09-09T12:50:22;11.0;;;10.0;;
21120;SDS011;12519;43.318;21.898;2022-09-09T12:55:24;11.0;;;10.0;;
21120;SDS011;12519;43.318;21.898;2022-09-09T13:00:22;13.0;;;10.0;;
21120;SDS011;12519;43.318;21.898;2022-09-09T13:05:21;13.0;;;10.0;;
21120;SDS011;12519;43.318;21.898;2022-09-09T13:10:19;15.0;;;11.0;;
21120;SDS011;12519;43.318;21.898;2022-09-09T13:15:29;15.0;;;11.0;;
21120;SDS011;12519;43.318;21.898;2022-09-09T13:20:20;14.0;;;10.0;;
21120;SDS011;12519;43.318;21.898;2022-09-09T13:25:20;14.0;;;10.0;;
21120;SDS011;12519;43.318;21.898;2022-09-09T13:30:28;12.0;;;10.0;;
21120;SDS011;12519;43.318;21.898;2022-09-09T13:35:24;12.0;;;10.0;;
21120;SDS011;12519;43.318;21.898;2022-09-09T13:40:12;13.0;;;11.0;;
21120;SDS011;12519;43.318;21.898;2022-09-09T13:45:00;13.0;;;11.0;;
21120;SDS011;12519;43.318;21.898;2022-09-09T13:49:38;14.0;;;12.0;;
21120;SDS011;12519;43.318;21.898;2022-09-09T13:54:20;14.0;;;12.0;;
21120;SDS011;12519;43.318;21.898;2022-09-09T13:58:57;12.0;;;10.0;;
21120;SDS011;12519;43.318;21.898;2022-09-09T14:03:33;12.0;;;10.0;;
21120;SDS011;12519;43.318;21.898;2022-09-09T14:08:26;9.0;;;8.0;;
21120;SDS011;12519;43.318;21.898;2022-09-09T14:13:03;9.0;;;8.0;;
21120;SDS011;12519;43.318;21.898;2022-09-09T14:17:40;8.0;;;7.0;;
21120;SDS011;12519;43.318;21.898;2022-09-09T14:22:17;8.0;;;7.0;;
21120;SDS011;12519;43.318;21.898;2022-09-09T14:26:55;7.0;;;6.0;;
21120;SDS011;12519;43.318;21.898;2022-09-09T14:31:32;7.0;;;6.0;;
21120;SDS011;12519;43.318;21.898;2022-09-09T14:36:11;7.0;;;6.0;;
21120;SDS011;12519;43.318;21.898;2022-09-09T14:40:48;8.0;;;6.0;;
21120;SDS011;12519;43.318;21.898;2022-09-09T14:45:25;8.0;;;6.0;;
21120;SDS011;12519;43.318;21.898;2022-09-09T14:50:04;8.0;;;7.0;;
21120;SDS011;12519;43.318;21.898;2022-09-09T14:54:42;8.0;;;7.0;;
21120;SDS011;12519;43.318;21.898;2022-09-09T14:59:19;8.0;;;7.0;;
21120;SDS011;12519;43.318;21.898;2022-09-09T15:04:02;8.0;;;7.0;;
21120;SDS011;12519;43.318;21.898;2022-09-09T15:08:45;9.0;;;7.0;;
21120;SDS011;12519;43.318;21.898;2022-09-09T15:13:28;9.0;;;7.0;;
21120;SDS011;12519;43.318;21.898;2022-09-09T15:18:05;8.0;;;7.0;;
21120;SDS011;12519;43.318;21.898;2022-09-09T15:22:43;8.0;;;7.0;;
21120;SDS011;12519;43.318;21.898;2022-09-09T15:27:20;8.0;;;7.0;;
21120;SDS011;12519;43.318;21.898;2022-09-09T15:31:57;8.0;;;7.0;;
21120;SDS011;12519;43.318;21.898;2022-09-09T15:36:38;8.0;;;6.0;;
21120;SDS011;12519;43.318;21.898;2022-09-09T15:41:23;8.0;;;6.0;;
21120;SDS011;12519;43.318;21.898;2022-09-09T15:46:29;7.0;;;6.0;;
21120;SDS011;12519;43.318;21.898;2022-09-09T15:51:12;7.0;;;6.0;;
21120;SDS011;12519;43.318;21.898;2022-09-09T15:55:55;7.0;;;6.0;;
21120;SDS011;12519;43.318;21.898;2022-09-09T16:00:32;8.0;;;6.0;;
21120;SDS011;12519;43.318;21.898;2022-09-09T16:05:09;8.0;;;6.0;;
21120;SDS011;12519;43.318;21.898;2022-09-09T16:09:46;8.0;;;7.0;;
21120;SDS011;12519;43.318;21.898;2022-09-09T16:14:22;8.0;;;7.0;;
21120;SDS011;12519;43.318;21.898;2022-09-09T16:19:08;10.0;;;8.0;;
21120;SDS011;12519;43.318;21.898;2022-09-09T16:23:52;10.0;;;8.0;;
21120;SDS011;12519;43.318;21.898;2022-09-09T16:28:29;12.0;;;9.0;;
21120;SDS011;12519;43.318;21.898;2022-09-09T16:33:05;12.0;;;9.0;;
21120;SDS011;12519;43.318;21.898;2022-09-09T16:37:42;10.0;;;8.0;;
21120;SDS011;12519;43.318;21.898;2022-09-09T16:42:18;10.0;;;8.0;;
21120;SDS011;12519;43.318;21.898;2022-09-09T16:46:54;9.0;;;7.0;;
21120;SDS011;12519;43.318;21.898;2022-09-09T16:51:38;9.0;;;7.0;;
21120;SDS011;12519;43.318;21.898;2022-09-09T16:56:24;9.0;;;7.0;;
21120;SDS011;12519;43.318;21.898;2022-09-09T17:01:05;11.0;;;9.0;;
21120;SDS011;12519;43.318;21.898;2022-09-09T17:05:42;11.0;;;9.0;;
21120;SDS011;12519;43.318;21.898;2022-09-09T17:10:19;13.0;;;11.0;;
21120;SDS011;12519;43.318;21.898;2022-09-09T17:14:56;13.0;;;11.0;;
21120;SDS011;12519;43.318;21.898;2022-09-09T17:19:33;11.0;;;9.0;;
21120;SDS011;12519;43.318;21.898;2022-09-09T17:24:11;11.0;;;9.0;;
21120;SDS011;12519;43.318;21.898;2022-09-09T17:28:48;9.0;;;7.0;;
21120;SDS011;12519;43.318;21.898;2022-09-09T17:33:25;9.0;;;7.0;;
21120;SDS011;12519;43.318;21.898;2022-09-09T17:38:02;11.0;;;8.0;;
21120;SDS011;12519;43.318;21.898;2022-09-09T17:42:38;11.0;;;8.0;;
21120;SDS011;12519;43.318;21.898;2022-09-09T17:47:15;13.0;;;9.0;;
21120;SDS011;12519;43.318;21.898;2022-09-09T17:51:51;13.0;;;9.0;;
21120;SDS011;12519;43.318;21.898;2022-09-09T17:56:33;13.0;;;9.0;;
21120;SDS011;12519;43.318;21.898;2022-09-09T18:01:20;12.0;;;10.0;;
21120;SDS011;12519;43.318;21.898;2022-09-09T18:06:12;12.0;;;10.0;;
21120;SDS011;12519;43.318;21.898;2022-09-09T18:11:04;12.0;;;10.0;;
21120;SDS011;12519;43.318;21.898;2022-09-09T18:15:44;12.0;;;10.0;;
21120;SDS011;12519;43.318;21.898;2022-09-09T18:20:21;23.0;;;20.0;;
21120;SDS011;12519;43.318;21.898;2022-09-09T18:24:58;23.0;;;20.0;;
21120;SDS011;12519;43.318;21.898;2022-09-09T18:29:35;34.0;;;30.0;;
21120;SDS011;12519;43.318;21.898;2022-09-09T18:34:18;34.0;;;30.0;;
21120;SDS011;12519;43.318;21.898;2022-09-09T18:39:03;25.0;;;22.0;;
21120;SDS011;12519;43.318;21.898;2022-09-09T18:43:44;25.0;;;22.0;;
21120;SDS011;12519;43.318;21.898;2022-09-09T18:48:21;16.0;;;15.0;;
21120;SDS011;12519;43.318;21.898;2022-09-09T18:52:58;16.0;;;15.0;;
21120;SDS011;12519;43.318;21.898;2022-09-09T18:57:35;23.0;;;20.0;;
21120;SDS011;12519;43.318;21.898;2022-09-09T19:02:13;23.0;;;20.0;;
21120;SDS011;12519;43.318;21.898;2022-09-09T19:06:50;30.0;;;24.0;;
21120;SDS011;12519;43.318;21.898;2022-09-09T19:11:27;30.0;;;24.0;;
21120;SDS011;12519;43.318;21.898;2022-09-09T19:16:08;30.0;;;24.0;;
21120;SDS011;12519;43.318;21.898;2022-09-09T19:20:49;26.0;;;22.0;;
21120;SDS011;12519;43.318;21.898;2022-09-09T19:25:26;26.0;;;22.0;;
21120;SDS011;12519;43.318;21.898;2022-09-09T19:30:05;22.0;;;19.0;;
21120;SDS011;12519;43.318;21.898;2022-09-09T19:34:44;22.0;;;19.0;;
21120;SDS011;12519;43.318;21.898;2022-09-09T19:39:21;24.0;;;19.0;;
21120;SDS011;12519;43.318;21.898;2022-09-09T19:44:04;24.0;;;19.0;;
21120;SDS011;12519;43.318;21.898;2022-09-09T19:48:48;25.0;;;19.0;;
21120;SDS011;12519;43.318;21.898;2022-09-09T19:53:25;25.0;;;19.0;;
21120;SDS011;12519;43.318;21.898;2022-09-09T19:58:02;22.0;;;18.0;;
21120;SDS011;12519;43.318;21.898;2022-09-09T20:02:38;22.0;;;18.0;;
21120;SDS011;12519;43.318;21.898;2022-09-09T20:07:15;19.0;;;17.0;;
21120;SDS011;12519;43.318;21.898;2022-09-09T20:11:51;19.0;;;17.0;;
21120;SDS011;12519;43.318;21.898;2022-09-09T20:16:31;19.0;;;17.0;;
21120;SDS011;12519;43.318;21.898;2022-09-09T20:21:16;19.0;;;17.0;;
21120;SDS011;12519;43.318;21.898;2022-09-09T20:26:05;19.0;;;17.0;;
21120;SDS011;12519;43.318;21.898;2022-09-09T20:40:09;30.0;;;24.0;;
21120;SDS011;12519;43.318;21.898;2022-09-09T20:44:47;30.0;;;24.0;;
21120;SDS011;12519;43.318;21.898;2022-09-09T20:49:25;30.0;;;24.0;;
21120;SDS011;12519;43.318;21.898;2022-09-09T20:54:17;30.0;;;24.0;;
21120;SDS011;12519;43.318;21.898;2022-09-09T20:58:56;28.0;;;22.0;;
21120;SDS011;12519;43.318;21.898;2022-09-09T21:03:36;28.0;;;22.0;;
21120;SDS011;12519;43.318;21.898;2022-09-09T21:08:13;26.0;;;20.0;;
21120;SDS011;12519;43.318;21.898;2022-09-09T21:12:50;26.0;;;20.0;;
21120;SDS011;12519;43.318;21.898;2022-09-09T21:17:27;22.0;;;18.0;;
21120;SDS011;12519;43.318;21.898;2022-09-09T21:22:04;22.0;;;18.0;;
21120;SDS011;12519;43.318;21.898;2022-09-09T21:26:41;22.0;;;18.0;;
21120;SDS011;12519;43.318;21.898;2022-09-09T21:31:20;19.0;;;16.0;;
21120;SDS011;12519;43.318;21.898;2022-09-09T21:36:07;19.0;;;16.0;;
21120;SDS011;12519;43.318;21.898;2022-09-09T21:40:48;18.0;;;16.0;;
21120;SDS011;12519;43.318;21.898;2022-09-09T21:45:25;18.0;;;16.0;;
21120;SDS011;12519;43.318;21.898;2022-09-09T21:50:01;18.0;;;16.0;;
21120;SDS011;12519;43.318;21.898;2022-09-09T21:54:39;18.0;;;16.0;;
21120;SDS011;12519;43.318;21.898;2022-09-09T21:59:16;18.0;;;16.0;;
21120;SDS011;12519;43.318;21.898;2022-09-09T22:03:53;18.0;;;16.0;;
21120;SDS011;12519;43.318;21.898;2022-09-09T22:08:29;19.0;;;17.0;;
21120;SDS011;12519;43.318;21.898;2022-09-09T22:13:07;19.0;;;17.0;;
21120;SDS011;12519;43.318;21.898;2022-09-09T22:17:43;20.0;;;18.0;;
21120;SDS011;12519;43.318;21.898;2022-09-09T22:22:20;20.0;;;18.0;;
21120;SDS011;12519;43.318;21.898;2022-09-09T22:26:57;20.0;;;18.0;;
21120;SDS011;12519;43.318;21.898;2022-09-09T22:31:35;20.0;;;18.0;;
21120;SDS011;12519;43.318;21.898;2022-09-09T22:36:12;20.0;;;18.0;;
21120;SDS011;12519;43.318;21.898;2022-09-09T22:40:49;18.0;;;16.0;;
21120;SDS011;12519;43.318;21.898;2022-09-09T22:45:25;18.0;;;16.0;;
21120;SDS011;12519;43.318;21.898;2022-09-09T22:50:03;17.0;;;15.0;;
21120;SDS011;12519;43.318;21.898;2022-09-09T22:54:42;17.0;;;15.0;;
21120;SDS011;12519;43.318;21.898;2022-09-09T22:59:19;16.0;;;14.0;;
21120;SDS011;12519;43.318;21.898;2022-09-09T23:03:58;16.0;;;14.0;;
21120;SDS011;12519;43.318;21.898;2022-09-09T23:08:37;16.0;;;14.0;;
21120;SDS011;12519;43.318;21.898;2022-09-09T23:13:13;16.0;;;14.0;;
21120;SDS011;12519;43.318;21.898;2022-09-09T23:17:50;14.0;;;12.0;;
21120;SDS011;12519;43.318;21.898;2022-09-09T23:22:28;14.0;;;12.0;;
21120;SDS011;12519;43.318;21.898;2022-09-09T23:27:06;14.0;;;12.0;;
21120;SDS011;12519;43.318;21.898;2022-09-09T23:31:45;12.0;;;11.0;;
21120;SDS011;12519;43.318;21.898;2022-09-09T23:36:25;12.0;;;11.0;;
21120;SDS011;12519;43.318;21.898;2022-09-09T23:41:10;14.0;;;11.0;;
21120;SDS011;12519;43.318;21.898;2022-09-09T23:45:55;14.0;;;11.0;;
21120;SDS011;12519;43.318;21.898;2022-09-09T23:50:33;16.0;;;11.0;;
21120;SDS011;12519;43.318;21.898;2022-09-09T23:55:10;16.0;;;11.0;;
21120;SDS011;12519;43.318;21.898;2022-09-09T23:59:47;14.0;;;10.0;;
